sensor_id;sensor_type;location;lat;lon;timestamp;P1;durP1;ratioP1;P2;durP2;ratioP2
23270;SDS011;11804;51.118;17.058;2022-11-11T00:01:14;18.93;;;11.37;;
23270;SDS011;11804;51.118;17.058;2022-11-11T00:03:43;17.10;;;11.40;;
23270;SDS011;11804;51.118;17.058;2022-11-11T00:06:11;22.57;;;12.30;;
23270;SDS011;11804;51.118;17.058;2022-11-11T00:08:41;19.33;;;11.10;;
23270;SDS011;11804;51.118;17.058;2022-11-11T00:11:14;19.87;;;11.17;;
23270;SDS011;11804;51.118;17.058;2022-11-11T00:13:39;25.23;;;11.50;;
23270;SDS011;11804;51.118;17.058;2022-11-11T00:16:17;22.30;;;11.90;;
23270;SDS011;11804;51.118;17.058;2022-11-11T00:18:47;19.03;;;12.47;;
23270;SDS011;11804;51.118;17.058;2022-11-11T00:21:33;18.27;;;11.83;;
23270;SDS011;11804;51.118;17.058;2022-11-11T00:24:12;20.43;;;12.37;;
23270;SDS011;11804;51.118;17.058;2022-11-11T00:27:12;19.63;;;11.70;;
23270;SDS011;11804;51.118;17.058;2022-11-11T00:29:45;18.50;;;11.97;;
23270;SDS011;11804;51.118;17.058;2022-11-11T00:32:14;16.53;;;11.20;;
23270;SDS011;11804;51.118;17.058;2022-11-11T00:34:55;17.47;;;10.77;;
23270;SDS011;11804;51.118;17.058;2022-11-11T00:37:42;18.03;;;11.00;;
23270;SDS011;11804;51.118;17.058;2022-11-11T00:40:11;18.00;;;11.20;;
23270;SDS011;11804;51.118;17.058;2022-11-11T00:42:39;17.13;;;11.10;;
23270;SDS011;11804;51.118;17.058;2022-11-11T00:45:09;20.63;;;11.07;;
23270;SDS011;11804;51.118;17.058;2022-11-11T00:47:37;19.83;;;11.07;;
23270;SDS011;11804;51.118;17.058;2022-11-11T00:50:24;19.57;;;10.57;;
23270;SDS011;11804;51.118;17.058;2022-11-11T00:55:41;20.47;;;10.60;;
23270;SDS011;11804;51.118;17.058;2022-11-11T00:58:09;22.30;;;11.10;;
23270;SDS011;11804;51.118;17.058;2022-11-11T01:00:37;19.23;;;10.47;;
23270;SDS011;11804;51.118;17.058;2022-11-11T01:03:04;17.13;;;11.83;;
23270;SDS011;11804;51.118;17.058;2022-11-11T01:05:32;25.27;;;10.83;;
23270;SDS011;11804;51.118;17.058;2022-11-11T01:07:59;19.67;;;10.70;;
23270;SDS011;11804;51.118;17.058;2022-11-11T01:10:27;19.93;;;11.60;;
23270;SDS011;11804;51.118;17.058;2022-11-11T01:13:23;15.60;;;10.20;;
23270;SDS011;11804;51.118;17.058;2022-11-11T01:15:41;15.80;;;10.47;;
23270;SDS011;11804;51.118;17.058;2022-11-11T01:18:10;20.33;;;11.37;;
23270;SDS011;11804;51.118;17.058;2022-11-11T01:20:42;20.07;;;11.10;;
23270;SDS011;11804;51.118;17.058;2022-11-11T01:23:10;22.37;;;10.20;;
23270;SDS011;11804;51.118;17.058;2022-11-11T01:25:39;16.80;;;10.70;;
23270;SDS011;11804;51.118;17.058;2022-11-11T01:28:08;15.57;;;8.87;;
23270;SDS011;11804;51.118;17.058;2022-11-11T01:30:36;17.70;;;9.77;;
23270;SDS011;11804;51.118;17.058;2022-11-11T01:33:03;20.13;;;10.53;;
23270;SDS011;11804;51.118;17.058;2022-11-11T01:35:31;14.33;;;9.10;;
23270;SDS011;11804;51.118;17.058;2022-11-11T01:38:02;18.13;;;9.60;;
23270;SDS011;11804;51.118;17.058;2022-11-11T01:40:29;16.57;;;9.67;;
23270;SDS011;11804;51.118;17.058;2022-11-11T01:45:53;14.30;;;9.73;;
23270;SDS011;11804;51.118;17.058;2022-11-11T01:48:31;19.60;;;9.33;;
23270;SDS011;11804;51.118;17.058;2022-11-11T01:51:29;15.40;;;9.03;;
23270;SDS011;11804;51.118;17.058;2022-11-11T01:54:03;14.90;;;9.40;;
23270;SDS011;11804;51.118;17.058;2022-11-11T01:56:34;16.70;;;8.90;;
23270;SDS011;11804;51.118;17.058;2022-11-11T01:59:05;15.90;;;9.53;;
23270;SDS011;11804;51.118;17.058;2022-11-11T02:01:34;14.33;;;9.07;;
23270;SDS011;11804;51.118;17.058;2022-11-11T02:04:02;15.97;;;9.23;;
23270;SDS011;11804;51.118;17.058;2022-11-11T02:06:51;16.73;;;9.07;;
23270;SDS011;11804;51.118;17.058;2022-11-11T02:09:21;15.17;;;9.63;;
23270;SDS011;11804;51.118;17.058;2022-11-11T02:11:50;18.93;;;8.90;;
23270;SDS011;11804;51.118;17.058;2022-11-11T02:14:41;15.80;;;8.53;;
23270;SDS011;11804;51.118;17.058;2022-11-11T02:17:11;16.23;;;8.90;;
23270;SDS011;11804;51.118;17.058;2022-11-11T02:19:47;14.87;;;9.30;;
23270;SDS011;11804;51.118;17.058;2022-11-11T02:22:34;14.70;;;9.00;;
23270;SDS011;11804;51.118;17.058;2022-11-11T02:25:06;18.43;;;9.03;;
23270;SDS011;11804;51.118;17.058;2022-11-11T02:27:35;14.27;;;8.90;;
23270;SDS011;11804;51.118;17.058;2022-11-11T02:30:08;15.57;;;8.97;;
23270;SDS011;11804;51.118;17.058;2022-11-11T02:32:39;15.10;;;8.80;;
23270;SDS011;11804;51.118;17.058;2022-11-11T02:35:15;15.00;;;9.00;;
23270;SDS011;11804;51.118;17.058;2022-11-11T02:37:45;15.27;;;8.70;;
23270;SDS011;11804;51.118;17.058;2022-11-11T02:40:20;17.57;;;9.40;;
23270;SDS011;11804;51.118;17.058;2022-11-11T02:42:45;17.97;;;9.10;;
23270;SDS011;11804;51.118;17.058;2022-11-11T02:45:12;14.97;;;9.43;;
23270;SDS011;11804;51.118;17.058;2022-11-11T02:47:40;14.50;;;8.80;;
23270;SDS011;11804;51.118;17.058;2022-11-11T02:50:08;17.77;;;9.57;;
23270;SDS011;11804;51.118;17.058;2022-11-11T02:52:36;16.87;;;8.93;;
23270;SDS011;11804;51.118;17.058;2022-11-11T02:55:04;17.37;;;9.23;;
23270;SDS011;11804;51.118;17.058;2022-11-11T02:57:32;16.53;;;9.67;;
23270;SDS011;11804;51.118;17.058;2022-11-11T03:00:00;16.83;;;9.13;;
23270;SDS011;11804;51.118;17.058;2022-11-11T03:02:30;16.50;;;9.47;;
23270;SDS011;11804;51.118;17.058;2022-11-11T03:04:58;17.83;;;10.13;;
23270;SDS011;11804;51.118;17.058;2022-11-11T03:07:25;15.63;;;9.77;;
23270;SDS011;11804;51.118;17.058;2022-11-11T03:09:53;16.20;;;9.63;;
23270;SDS011;11804;51.118;17.058;2022-11-11T03:12:20;15.10;;;9.23;;
23270;SDS011;11804;51.118;17.058;2022-11-11T03:14:48;17.47;;;9.37;;
23270;SDS011;11804;51.118;17.058;2022-11-11T03:17:16;17.40;;;9.40;;
23270;SDS011;11804;51.118;17.058;2022-11-11T03:20:01;21.23;;;9.67;;
23270;SDS011;11804;51.118;17.058;2022-11-11T03:22:58;15.43;;;9.57;;
23270;SDS011;11804;51.118;17.058;2022-11-11T03:25:30;19.80;;;9.77;;
23270;SDS011;11804;51.118;17.058;2022-11-11T03:28:08;19.23;;;9.50;;
23270;SDS011;11804;51.118;17.058;2022-11-11T03:30:41;20.77;;;10.33;;
23270;SDS011;11804;51.118;17.058;2022-11-11T03:33:10;15.13;;;9.23;;
23270;SDS011;11804;51.118;17.058;2022-11-11T03:35:38;18.37;;;10.40;;
23270;SDS011;11804;51.118;17.058;2022-11-11T03:38:08;18.50;;;9.83;;
23270;SDS011;11804;51.118;17.058;2022-11-11T03:40:46;17.00;;;9.57;;
23270;SDS011;11804;51.118;17.058;2022-11-11T03:43:15;16.97;;;9.37;;
23270;SDS011;11804;51.118;17.058;2022-11-11T03:45:44;16.20;;;9.27;;
23270;SDS011;11804;51.118;17.058;2022-11-11T03:48:13;17.30;;;9.57;;
23270;SDS011;11804;51.118;17.058;2022-11-11T03:50:41;17.97;;;9.93;;
23270;SDS011;11804;51.118;17.058;2022-11-11T03:53:09;16.87;;;9.80;;
23270;SDS011;11804;51.118;17.058;2022-11-11T03:55:36;16.00;;;9.80;;
23270;SDS011;11804;51.118;17.058;2022-11-11T03:58:04;17.73;;;10.10;;
23270;SDS011;11804;51.118;17.058;2022-11-11T04:00:32;20.60;;;10.40;;
23270;SDS011;11804;51.118;17.058;2022-11-11T04:03:06;19.97;;;10.47;;
23270;SDS011;11804;51.118;17.058;2022-11-11T04:05:56;19.23;;;10.10;;
23270;SDS011;11804;51.118;17.058;2022-11-11T04:08:42;15.93;;;10.30;;
23270;SDS011;11804;51.118;17.058;2022-11-11T04:11:39;17.57;;;10.23;;
23270;SDS011;11804;51.118;17.058;2022-11-11T04:14:09;20.30;;;11.50;;
23270;SDS011;11804;51.118;17.058;2022-11-11T04:16:56;16.67;;;10.97;;
23270;SDS011;11804;51.118;17.058;2022-11-11T04:19:26;20.70;;;11.17;;
23270;SDS011;11804;51.118;17.058;2022-11-11T04:22:11;17.73;;;11.53;;
23270;SDS011;11804;51.118;17.058;2022-11-11T04:24:40;19.03;;;11.10;;
23270;SDS011;11804;51.118;17.058;2022-11-11T04:27:13;19.53;;;11.20;;
23270;SDS011;11804;51.118;17.058;2022-11-11T04:29:42;19.20;;;11.03;;
23270;SDS011;11804;51.118;17.058;2022-11-11T04:32:13;20.83;;;11.17;;
23270;SDS011;11804;51.118;17.058;2022-11-11T04:35:01;18.43;;;11.27;;
23270;SDS011;11804;51.118;17.058;2022-11-11T04:37:34;16.40;;;11.20;;
23270;SDS011;11804;51.118;17.058;2022-11-11T04:40:03;16.53;;;10.43;;
23270;SDS011;11804;51.118;17.058;2022-11-11T04:42:53;17.97;;;10.43;;
23270;SDS011;11804;51.118;17.058;2022-11-11T04:45:20;17.27;;;11.13;;
23270;SDS011;11804;51.118;17.058;2022-11-11T04:50:37;20.33;;;11.50;;
23270;SDS011;11804;51.118;17.058;2022-11-11T04:53:06;18.87;;;11.50;;
23270;SDS011;11804;51.118;17.058;2022-11-11T04:55:36;19.90;;;12.03;;
23270;SDS011;11804;51.118;17.058;2022-11-11T04:58:23;19.03;;;12.30;;
23270;SDS011;11804;51.118;17.058;2022-11-11T05:00:52;17.40;;;11.67;;
23270;SDS011;11804;51.118;17.058;2022-11-11T05:03:20;26.10;;;12.67;;
23270;SDS011;11804;51.118;17.058;2022-11-11T05:05:55;21.70;;;11.60;;
23270;SDS011;11804;51.118;17.058;2022-11-11T05:08:40;21.70;;;12.03;;
23270;SDS011;11804;51.118;17.058;2022-11-11T05:11:22;20.47;;;11.90;;
23270;SDS011;11804;51.118;17.058;2022-11-11T05:13:52;21.67;;;11.80;;
23270;SDS011;11804;51.118;17.058;2022-11-11T05:16:41;20.63;;;11.43;;
23270;SDS011;11804;51.118;17.058;2022-11-11T05:19:28;19.83;;;11.40;;
23270;SDS011;11804;51.118;17.058;2022-11-11T05:22:15;20.63;;;12.03;;
23270;SDS011;11804;51.118;17.058;2022-11-11T05:24:54;19.77;;;10.90;;
23270;SDS011;11804;51.118;17.058;2022-11-11T05:27:39;20.10;;;11.73;;
23270;SDS011;11804;51.118;17.058;2022-11-11T05:30:08;20.17;;;11.47;;
23270;SDS011;11804;51.118;17.058;2022-11-11T05:32:37;19.10;;;11.50;;
23270;SDS011;11804;51.118;17.058;2022-11-11T05:35:05;19.17;;;10.93;;
23270;SDS011;11804;51.118;17.058;2022-11-11T05:37:34;18.53;;;10.10;;
23270;SDS011;11804;51.118;17.058;2022-11-11T05:40:04;19.90;;;10.90;;
23270;SDS011;11804;51.118;17.058;2022-11-11T05:42:32;22.23;;;11.57;;
23270;SDS011;11804;51.118;17.058;2022-11-11T05:45:00;21.80;;;11.17;;
23270;SDS011;11804;51.118;17.058;2022-11-11T05:47:29;18.40;;;11.10;;
23270;SDS011;11804;51.118;17.058;2022-11-11T05:49:57;18.83;;;10.70;;
23270;SDS011;11804;51.118;17.058;2022-11-11T05:52:24;18.23;;;10.40;;
23270;SDS011;11804;51.118;17.058;2022-11-11T05:54:52;19.50;;;10.13;;
23270;SDS011;11804;51.118;17.058;2022-11-11T05:57:20;22.77;;;10.03;;
23270;SDS011;11804;51.118;17.058;2022-11-11T05:59:47;18.93;;;10.07;;
23270;SDS011;11804;51.118;17.058;2022-11-11T06:02:15;16.33;;;10.33;;
23270;SDS011;11804;51.118;17.058;2022-11-11T06:04:42;17.03;;;9.10;;
23270;SDS011;11804;51.118;17.058;2022-11-11T06:07:10;17.67;;;9.77;;
23270;SDS011;11804;51.118;17.058;2022-11-11T06:09:39;15.90;;;10.10;;
23270;SDS011;11804;51.118;17.058;2022-11-11T06:12:06;18.13;;;9.43;;
23270;SDS011;11804;51.118;17.058;2022-11-11T06:14:34;16.83;;;9.93;;
23270;SDS011;11804;51.118;17.058;2022-11-11T06:17:01;16.03;;;9.67;;
23270;SDS011;11804;51.118;17.058;2022-11-11T06:19:29;19.73;;;10.10;;
23270;SDS011;11804;51.118;17.058;2022-11-11T06:21:56;18.80;;;10.30;;
23270;SDS011;11804;51.118;17.058;2022-11-11T06:24:25;17.63;;;10.17;;
23270;SDS011;11804;51.118;17.058;2022-11-11T06:26:53;17.87;;;10.20;;
23270;SDS011;11804;51.118;17.058;2022-11-11T06:29:21;16.43;;;9.70;;
23270;SDS011;11804;51.118;17.058;2022-11-11T06:31:49;15.77;;;9.90;;
23270;SDS011;11804;51.118;17.058;2022-11-11T06:34:17;17.30;;;9.77;;
23270;SDS011;11804;51.118;17.058;2022-11-11T06:36:44;19.30;;;9.60;;
23270;SDS011;11804;51.118;17.058;2022-11-11T06:39:14;16.27;;;9.10;;
23270;SDS011;11804;51.118;17.058;2022-11-11T06:41:41;17.20;;;9.70;;
23270;SDS011;11804;51.118;17.058;2022-11-11T06:44:09;15.53;;;9.60;;
23270;SDS011;11804;51.118;17.058;2022-11-11T06:46:36;18.53;;;10.13;;
23270;SDS011;11804;51.118;17.058;2022-11-11T06:49:04;18.67;;;10.77;;
23270;SDS011;11804;51.118;17.058;2022-11-11T06:51:31;17.17;;;9.83;;
23270;SDS011;11804;51.118;17.058;2022-11-11T06:53:59;18.23;;;10.03;;
23270;SDS011;11804;51.118;17.058;2022-11-11T06:56:26;17.73;;;10.30;;
23270;SDS011;11804;51.118;17.058;2022-11-11T06:58:54;18.30;;;10.10;;
23270;SDS011;11804;51.118;17.058;2022-11-11T07:01:21;16.20;;;10.67;;
23270;SDS011;11804;51.118;17.058;2022-11-11T07:03:52;16.07;;;10.63;;
23270;SDS011;11804;51.118;17.058;2022-11-11T07:06:19;18.13;;;10.83;;
23270;SDS011;11804;51.118;17.058;2022-11-11T07:08:48;19.57;;;11.70;;
23270;SDS011;11804;51.118;17.058;2022-11-11T07:11:16;18.87;;;12.30;;
23270;SDS011;11804;51.118;17.058;2022-11-11T07:13:43;22.43;;;12.50;;
23270;SDS011;11804;51.118;17.058;2022-11-11T07:16:11;23.03;;;12.43;;
23270;SDS011;11804;51.118;17.058;2022-11-11T07:18:38;18.60;;;11.77;;
23270;SDS011;11804;51.118;17.058;2022-11-11T07:21:06;18.73;;;12.17;;
23270;SDS011;11804;51.118;17.058;2022-11-11T07:23:53;18.77;;;11.10;;
23270;SDS011;11804;51.118;17.058;2022-11-11T07:26:22;20.03;;;12.27;;
23270;SDS011;11804;51.118;17.058;2022-11-11T07:28:49;42.60;;;22.30;;
23270;SDS011;11804;51.118;17.058;2022-11-11T07:31:17;36.87;;;19.00;;
23270;SDS011;11804;51.118;17.058;2022-11-11T07:33:45;26.20;;;14.87;;
23270;SDS011;11804;51.118;17.058;2022-11-11T07:36:12;44.13;;;21.33;;
23270;SDS011;11804;51.118;17.058;2022-11-11T07:38:40;40.33;;;19.70;;
23270;SDS011;11804;51.118;17.058;2022-11-11T07:41:07;37.23;;;16.70;;
23270;SDS011;11804;51.118;17.058;2022-11-11T07:43:35;29.33;;;14.40;;
23270;SDS011;11804;51.118;17.058;2022-11-11T07:46:04;37.30;;;17.83;;
23270;SDS011;11804;51.118;17.058;2022-11-11T07:48:31;30.30;;;16.13;;
23270;SDS011;11804;51.118;17.058;2022-11-11T07:51:11;22.53;;;15.30;;
23270;SDS011;11804;51.118;17.058;2022-11-11T07:53:38;26.60;;;17.03;;
23270;SDS011;11804;51.118;17.058;2022-11-11T07:56:06;26.37;;;16.67;;
23270;SDS011;11804;51.118;17.058;2022-11-11T07:58:34;38.87;;;23.43;;
23270;SDS011;11804;51.118;17.058;2022-11-11T08:01:02;30.93;;;18.90;;
23270;SDS011;11804;51.118;17.058;2022-11-11T08:03:29;28.93;;;16.40;;
23270;SDS011;11804;51.118;17.058;2022-11-11T08:05:57;26.87;;;15.40;;
23270;SDS011;11804;51.118;17.058;2022-11-11T08:08:26;24.70;;;14.00;;
23270;SDS011;11804;51.118;17.058;2022-11-11T08:10:54;29.67;;;15.63;;
23270;SDS011;11804;51.118;17.058;2022-11-11T08:13:21;21.00;;;12.67;;
23270;SDS011;11804;51.118;17.058;2022-11-11T08:16:11;28.80;;;14.03;;
23270;SDS011;11804;51.118;17.058;2022-11-11T08:18:38;25.97;;;14.30;;
23270;SDS011;11804;51.118;17.058;2022-11-11T08:21:06;31.00;;;15.80;;
23270;SDS011;11804;51.118;17.058;2022-11-11T08:23:33;27.93;;;15.07;;
23270;SDS011;11804;51.118;17.058;2022-11-11T08:26:02;25.27;;;14.80;;
23270;SDS011;11804;51.118;17.058;2022-11-11T08:28:32;23.47;;;12.67;;
23270;SDS011;11804;51.118;17.058;2022-11-11T08:31:01;23.80;;;13.23;;
23270;SDS011;11804;51.118;17.058;2022-11-11T08:33:28;26.13;;;12.70;;
23270;SDS011;11804;51.118;17.058;2022-11-11T08:35:57;19.07;;;11.60;;
23270;SDS011;11804;51.118;17.058;2022-11-11T08:38:26;26.57;;;13.50;;
23270;SDS011;11804;51.118;17.058;2022-11-11T08:43:30;24.50;;;13.53;;
23270;SDS011;11804;51.118;17.058;2022-11-11T08:45:59;23.50;;;11.83;;
23270;SDS011;11804;51.118;17.058;2022-11-11T08:48:29;23.73;;;11.67;;
23270;SDS011;11804;51.118;17.058;2022-11-11T08:51:00;21.43;;;11.50;;
23270;SDS011;11804;51.118;17.058;2022-11-11T08:53:31;19.60;;;11.17;;
23270;SDS011;11804;51.118;17.058;2022-11-11T08:56:02;19.07;;;11.63;;
23270;SDS011;11804;51.118;17.058;2022-11-11T08:58:31;20.90;;;11.47;;
23270;SDS011;11804;51.118;17.058;2022-11-11T09:00:59;17.37;;;10.80;;
23270;SDS011;11804;51.118;17.058;2022-11-11T09:03:28;17.80;;;10.60;;
23270;SDS011;11804;51.118;17.058;2022-11-11T09:05:56;16.00;;;9.83;;
23270;SDS011;11804;51.118;17.058;2022-11-11T09:08:26;16.77;;;9.53;;
23270;SDS011;11804;51.118;17.058;2022-11-11T09:10:53;14.90;;;9.37;;
23270;SDS011;11804;51.118;17.058;2022-11-11T09:13:22;17.53;;;9.07;;
23270;SDS011;11804;51.118;17.058;2022-11-11T09:15:51;15.40;;;8.97;;
23270;SDS011;11804;51.118;17.058;2022-11-11T09:18:23;14.60;;;8.87;;
23270;SDS011;11804;51.118;17.058;2022-11-11T09:20:51;13.93;;;8.60;;
23270;SDS011;11804;51.118;17.058;2022-11-11T09:23:18;16.60;;;8.77;;
23270;SDS011;11804;51.118;17.058;2022-11-11T09:25:46;14.80;;;8.53;;
23270;SDS011;11804;51.118;17.058;2022-11-11T09:28:14;13.70;;;8.00;;
23270;SDS011;11804;51.118;17.058;2022-11-11T09:30:41;13.67;;;8.27;;
23270;SDS011;11804;51.118;17.058;2022-11-11T09:33:09;13.37;;;8.27;;
23270;SDS011;11804;51.118;17.058;2022-11-11T09:35:37;13.00;;;8.20;;
23270;SDS011;11804;51.118;17.058;2022-11-11T09:38:04;12.17;;;7.43;;
23270;SDS011;11804;51.118;17.058;2022-11-11T09:40:45;12.70;;;7.73;;
23270;SDS011;11804;51.118;17.058;2022-11-11T09:48:50;12.67;;;7.17;;
23270;SDS011;11804;51.118;17.058;2022-11-11T09:51:22;14.57;;;7.20;;
23270;SDS011;11804;51.118;17.058;2022-11-11T09:53:52;13.83;;;7.10;;
23270;SDS011;11804;51.118;17.058;2022-11-11T09:56:25;12.23;;;7.37;;
23270;SDS011;11804;51.118;17.058;2022-11-11T10:01:47;11.13;;;6.83;;
23270;SDS011;11804;51.118;17.058;2022-11-11T10:04:16;15.30;;;7.60;;
23270;SDS011;11804;51.118;17.058;2022-11-11T10:07:00;12.83;;;6.83;;
23270;SDS011;11804;51.118;17.058;2022-11-11T10:14:48;13.30;;;6.73;;
23270;SDS011;11804;51.118;17.058;2022-11-11T10:17:19;20.13;;;6.97;;
23270;SDS011;11804;51.118;17.058;2022-11-11T10:22:36;14.70;;;8.57;;
23270;SDS011;11804;51.118;17.058;2022-11-11T10:27:50;11.57;;;7.00;;
23270;SDS011;11804;51.118;17.058;2022-11-11T10:30:23;13.77;;;7.70;;
23270;SDS011;11804;51.118;17.058;2022-11-11T10:33:12;11.33;;;7.03;;
23270;SDS011;11804;51.118;17.058;2022-11-11T10:35:42;14.07;;;7.63;;
23270;SDS011;11804;51.118;17.058;2022-11-11T10:41:08;13.10;;;7.67;;
23270;SDS011;11804;51.118;17.058;2022-11-11T10:43:21;10.57;;;6.40;;
23270;SDS011;11804;51.118;17.058;2022-11-11T10:48:40;12.20;;;7.53;;
23270;SDS011;11804;51.118;17.058;2022-11-11T10:51:11;13.50;;;7.27;;
23270;SDS011;11804;51.118;17.058;2022-11-11T10:53:55;14.03;;;7.73;;
23270;SDS011;11804;51.118;17.058;2022-11-11T10:56:49;10.67;;;6.17;;
23270;SDS011;11804;51.118;17.058;2022-11-11T10:59:23;13.63;;;7.03;;
23270;SDS011;11804;51.118;17.058;2022-11-11T11:02:12;12.57;;;7.33;;
23270;SDS011;11804;51.118;17.058;2022-11-11T11:04:32;13.37;;;7.50;;
23270;SDS011;11804;51.118;17.058;2022-11-11T11:07:23;16.97;;;7.93;;
23270;SDS011;11804;51.118;17.058;2022-11-11T11:09:58;13.77;;;6.80;;
23270;SDS011;11804;51.118;17.058;2022-11-11T11:15:15;14.83;;;7.10;;
23270;SDS011;11804;51.118;17.058;2022-11-11T11:18:00;11.80;;;6.93;;
23270;SDS011;11804;51.118;17.058;2022-11-11T11:20:30;15.83;;;6.83;;
23270;SDS011;11804;51.118;17.058;2022-11-11T11:22:57;13.57;;;7.10;;
23270;SDS011;11804;51.118;17.058;2022-11-11T11:25:28;13.33;;;6.87;;
23270;SDS011;11804;51.118;17.058;2022-11-11T11:28:12;11.60;;;7.33;;
23270;SDS011;11804;51.118;17.058;2022-11-11T11:30:36;13.33;;;7.10;;
23270;SDS011;11804;51.118;17.058;2022-11-11T11:33:09;12.77;;;7.03;;
23270;SDS011;11804;51.118;17.058;2022-11-11T11:35:35;15.00;;;6.53;;
23270;SDS011;11804;51.118;17.058;2022-11-11T11:38:12;10.80;;;6.60;;
23270;SDS011;11804;51.118;17.058;2022-11-11T11:43:30;10.83;;;5.97;;
23270;SDS011;11804;51.118;17.058;2022-11-11T11:46:00;8.70;;;5.97;;
23270;SDS011;11804;51.118;17.058;2022-11-11T11:51:25;11.17;;;6.93;;
23270;SDS011;11804;51.118;17.058;2022-11-11T11:56:45;11.80;;;6.90;;
23270;SDS011;11804;51.118;17.058;2022-11-11T11:59:16;13.43;;;6.40;;
23270;SDS011;11804;51.118;17.058;2022-11-11T12:08:05;10.23;;;6.57;;
23270;SDS011;11804;51.118;17.058;2022-11-11T12:10:48;9.33;;;6.00;;
23270;SDS011;11804;51.118;17.058;2022-11-11T12:22:07;10.77;;;6.40;;
23270;SDS011;11804;51.118;17.058;2022-11-11T12:24:44;12.03;;;5.93;;
23270;SDS011;11804;51.118;17.058;2022-11-11T12:27:20;10.57;;;5.67;;
23270;SDS011;11804;51.118;17.058;2022-11-11T12:32:38;9.80;;;5.50;;
23270;SDS011;11804;51.118;17.058;2022-11-11T12:40:56;12.00;;;6.53;;
23270;SDS011;11804;51.118;17.058;2022-11-11T12:43:28;10.40;;;5.70;;
23270;SDS011;11804;51.118;17.058;2022-11-11T12:46:10;11.67;;;6.10;;
23270;SDS011;11804;51.118;17.058;2022-11-11T12:54:04;9.20;;;6.30;;
23270;SDS011;11804;51.118;17.058;2022-11-11T12:56:37;12.80;;;6.90;;
23270;SDS011;11804;51.118;17.058;2022-11-11T12:59:09;12.27;;;6.70;;
23270;SDS011;11804;51.118;17.058;2022-11-11T13:02:01;9.10;;;5.77;;
23270;SDS011;11804;51.118;17.058;2022-11-11T13:10:15;8.80;;;5.07;;
23270;SDS011;11804;51.118;17.058;2022-11-11T13:12:51;8.80;;;5.00;;
23270;SDS011;11804;51.118;17.058;2022-11-11T13:15:35;11.80;;;5.00;;
23270;SDS011;11804;51.118;17.058;2022-11-11T13:18:07;12.07;;;5.87;;
23270;SDS011;11804;51.118;17.058;2022-11-11T13:20:45;7.87;;;5.27;;
23270;SDS011;11804;51.118;17.058;2022-11-11T13:23:18;8.30;;;5.13;;
23270;SDS011;11804;51.118;17.058;2022-11-11T13:25:47;10.17;;;4.97;;
23270;SDS011;11804;51.118;17.058;2022-11-11T13:28:23;14.07;;;5.43;;
23270;SDS011;11804;51.118;17.058;2022-11-11T13:31:04;8.70;;;4.43;;
23270;SDS011;11804;51.118;17.058;2022-11-11T13:36:07;10.37;;;4.70;;
23270;SDS011;11804;51.118;17.058;2022-11-11T13:38:46;14.80;;;5.57;;
23270;SDS011;11804;51.118;17.058;2022-11-11T13:41:28;14.87;;;5.70;;
23270;SDS011;11804;51.118;17.058;2022-11-11T13:43:58;7.50;;;4.80;;
23270;SDS011;11804;51.118;17.058;2022-11-11T13:48:59;9.63;;;4.40;;
23270;SDS011;11804;51.118;17.058;2022-11-11T13:51:36;8.60;;;4.90;;
23270;SDS011;11804;51.118;17.058;2022-11-11T13:54:21;8.47;;;5.23;;
23270;SDS011;11804;51.118;17.058;2022-11-11T13:56:50;10.63;;;4.97;;
23270;SDS011;11804;51.118;17.058;2022-11-11T13:59:26;9.53;;;5.20;;
23270;SDS011;11804;51.118;17.058;2022-11-11T14:02:13;10.70;;;5.97;;
23270;SDS011;11804;51.118;17.058;2022-11-11T14:07:50;11.03;;;5.70;;
23270;SDS011;11804;51.118;17.058;2022-11-11T14:12:53;13.83;;;6.63;;
23270;SDS011;11804;51.118;17.058;2022-11-11T14:15:41;13.07;;;6.10;;
23270;SDS011;11804;51.118;17.058;2022-11-11T14:20:48;11.53;;;6.27;;
23270;SDS011;11804;51.118;17.058;2022-11-11T14:23:37;13.80;;;7.53;;
23270;SDS011;11804;51.118;17.058;2022-11-11T14:28:43;10.67;;;7.00;;
23270;SDS011;11804;51.118;17.058;2022-11-11T14:33:58;15.97;;;7.63;;
23270;SDS011;11804;51.118;17.058;2022-11-11T14:36:41;14.37;;;7.97;;
23270;SDS011;11804;51.118;17.058;2022-11-11T14:41:49;13.63;;;7.90;;
23270;SDS011;11804;51.118;17.058;2022-11-11T14:52:34;13.70;;;8.43;;
23270;SDS011;11804;51.118;17.058;2022-11-11T14:55:25;16.30;;;9.17;;
23270;SDS011;11804;51.118;17.058;2022-11-11T14:58:07;17.27;;;9.77;;
23270;SDS011;11804;51.118;17.058;2022-11-11T15:00:45;22.20;;;10.60;;
23270;SDS011;11804;51.118;17.058;2022-11-11T15:03:26;14.87;;;9.97;;
23270;SDS011;11804;51.118;17.058;2022-11-11T15:14:41;19.23;;;11.23;;
23270;SDS011;11804;51.118;17.058;2022-11-11T15:19:51;21.13;;;12.67;;
23270;SDS011;11804;51.118;17.058;2022-11-11T15:25:10;21.27;;;12.37;;
23270;SDS011;11804;51.118;17.058;2022-11-11T15:27:40;25.13;;;12.67;;
23270;SDS011;11804;51.118;17.058;2022-11-11T15:30:13;20.80;;;11.83;;
23270;SDS011;11804;51.118;17.058;2022-11-11T15:32:52;20.67;;;12.53;;
23270;SDS011;11804;51.118;17.058;2022-11-11T15:38:19;16.83;;;11.50;;
23270;SDS011;11804;51.118;17.058;2022-11-11T15:40:48;20.73;;;12.33;;
23270;SDS011;11804;51.118;17.058;2022-11-11T15:43:23;17.47;;;11.30;;
23270;SDS011;11804;51.118;17.058;2022-11-11T15:45:56;19.87;;;11.90;;
23270;SDS011;11804;51.118;17.058;2022-11-11T15:53:50;21.37;;;12.37;;
23270;SDS011;11804;51.118;17.058;2022-11-11T15:56:27;19.20;;;12.33;;
23270;SDS011;11804;51.118;17.058;2022-11-11T15:58:57;18.23;;;12.20;;
23270;SDS011;11804;51.118;17.058;2022-11-11T16:01:26;17.07;;;11.80;;
23270;SDS011;11804;51.118;17.058;2022-11-11T16:03:55;20.40;;;11.93;;
23270;SDS011;11804;51.118;17.058;2022-11-11T16:06:23;21.70;;;12.87;;
23270;SDS011;11804;51.118;17.058;2022-11-11T16:08:51;23.40;;;13.57;;
23270;SDS011;11804;51.118;17.058;2022-11-11T16:11:21;19.97;;;12.70;;
23270;SDS011;11804;51.118;17.058;2022-11-11T16:13:50;20.90;;;12.50;;
23270;SDS011;11804;51.118;17.058;2022-11-11T16:16:23;23.60;;;13.50;;
23270;SDS011;11804;51.118;17.058;2022-11-11T16:19:03;22.83;;;12.67;;
23270;SDS011;11804;51.118;17.058;2022-11-11T16:21:27;24.20;;;14.47;;
23270;SDS011;11804;51.118;17.058;2022-11-11T16:24:06;22.30;;;12.70;;
23270;SDS011;11804;51.118;17.058;2022-11-11T16:26:35;27.53;;;13.53;;
23270;SDS011;11804;51.118;17.058;2022-11-11T16:29:03;21.47;;;12.83;;
23270;SDS011;11804;51.118;17.058;2022-11-11T16:39:33;22.53;;;12.60;;
23270;SDS011;11804;51.118;17.058;2022-11-11T16:42:02;23.93;;;12.70;;
23270;SDS011;11804;51.118;17.058;2022-11-11T16:44:34;20.17;;;13.00;;
23270;SDS011;11804;51.118;17.058;2022-11-11T16:47:40;22.50;;;12.83;;
23270;SDS011;11804;51.118;17.058;2022-11-11T16:50:23;21.77;;;12.80;;
23270;SDS011;11804;51.118;17.058;2022-11-11T16:55:28;19.40;;;12.40;;
23270;SDS011;11804;51.118;17.058;2022-11-11T16:58:09;21.13;;;12.27;;
23270;SDS011;11804;51.118;17.058;2022-11-11T17:00:45;19.67;;;12.60;;
23270;SDS011;11804;51.118;17.058;2022-11-11T17:03:23;26.20;;;15.63;;
23270;SDS011;11804;51.118;17.058;2022-11-11T17:08:34;26.30;;;15.03;;
23270;SDS011;11804;51.118;17.058;2022-11-11T17:11:04;23.07;;;15.00;;
23270;SDS011;11804;51.118;17.058;2022-11-11T17:13:33;25.57;;;15.00;;